sensor_id;sensor_type;location;lat;lon;timestamp;P1;durP1;ratioP1;P2;durP2;ratioP2
71108;SDS011;59614;51.012;-1.648;2023-04-28T00:01:41;21.20;;;8.50;;
71108;SDS011;59614;51.012;-1.648;2023-04-28T00:04:06;20.02;;;7.25;;
71108;SDS011;59614;51.012;-1.648;2023-04-28T00:06:32;19.00;;;6.40;;
71108;SDS011;59614;51.012;-1.648;2023-04-28T00:08:57;13.90;;;5.68;;
71108;SDS011;59614;51.012;-1.648;2023-04-28T00:11:23;11.75;;;5.45;;
71108;SDS011;59614;51.012;-1.648;2023-04-28T00:13:48;12.82;;;6.07;;
71108;SDS011;59614;51.012;-1.648;2023-04-28T00:16:13;13.68;;;6.30;;
71108;SDS011;59614;51.012;-1.648;2023-04-28T00:18:39;17.58;;;6.55;;
71108;SDS011;59614;51.012;-1.648;2023-04-28T00:21:04;14.55;;;5.72;;
71108;SDS011;59614;51.012;-1.648;2023-04-28T00:23:30;14.98;;;5.75;;
71108;SDS011;59614;51.012;-1.648;2023-04-28T00:25:55;14.15;;;6.00;;
71108;SDS011;59614;51.012;-1.648;2023-04-28T00:28:21;10.43;;;5.00;;
71108;SDS011;59614;51.012;-1.648;2023-04-28T00:30:47;12.30;;;5.13;;
71108;SDS011;59614;51.012;-1.648;2023-04-28T00:33:12;12.82;;;5.00;;
71108;SDS011;59614;51.012;-1.648;2023-04-28T00:35:38;9.88;;;4.43;;
71108;SDS011;59614;51.012;-1.648;2023-04-28T00:38:04;12.00;;;4.57;;
71108;SDS011;59614;51.012;-1.648;2023-04-28T00:40:36;9.93;;;4.22;;
71108;SDS011;59614;51.012;-1.648;2023-04-28T00:43:03;17.85;;;3.83;;
71108;SDS011;59614;51.012;-1.648;2023-04-28T00:45:29;11.32;;;4.28;;
71108;SDS011;59614;51.012;-1.648;2023-04-28T00:47:55;8.18;;;4.30;;
71108;SDS011;59614;51.012;-1.648;2023-04-28T00:50:21;12.80;;;4.30;;
71108;SDS011;59614;51.012;-1.648;2023-04-28T00:52:47;9.15;;;3.97;;
71108;SDS011;59614;51.012;-1.648;2023-04-28T00:55:14;7.70;;;4.05;;
71108;SDS011;59614;51.012;-1.648;2023-04-28T00:57:40;9.50;;;4.10;;
71108;SDS011;59614;51.012;-1.648;2023-04-28T01:00:06;8.90;;;3.78;;
71108;SDS011;59614;51.012;-1.648;2023-04-28T01:02:32;7.53;;;3.83;;
71108;SDS011;59614;51.012;-1.648;2023-04-28T01:04:58;8.30;;;3.78;;
71108;SDS011;59614;51.012;-1.648;2023-04-28T01:07:25;9.13;;;3.67;;
71108;SDS011;59614;51.012;-1.648;2023-04-28T01:09:51;7.00;;;3.40;;
71108;SDS011;59614;51.012;-1.648;2023-04-28T01:12:16;8.80;;;3.75;;
71108;SDS011;59614;51.012;-1.648;2023-04-28T01:14:42;8.32;;;3.75;;
71108;SDS011;59614;51.012;-1.648;2023-04-28T01:17:07;6.40;;;3.78;;
71108;SDS011;59614;51.012;-1.648;2023-04-28T01:19:34;8.18;;;3.63;;
71108;SDS011;59614;51.012;-1.648;2023-04-28T01:22:00;9.40;;;4.15;;
71108;SDS011;59614;51.012;-1.648;2023-04-28T01:24:25;8.25;;;3.70;;
71108;SDS011;59614;51.012;-1.648;2023-04-28T01:26:50;11.13;;;3.80;;
71108;SDS011;59614;51.012;-1.648;2023-04-28T01:29:16;7.22;;;3.88;;
71108;SDS011;59614;51.012;-1.648;2023-04-28T01:31:41;8.95;;;4.00;;
71108;SDS011;59614;51.012;-1.648;2023-04-28T01:34:07;9.90;;;4.22;;
71108;SDS011;59614;51.012;-1.648;2023-04-28T01:36:32;9.10;;;3.63;;
71108;SDS011;59614;51.012;-1.648;2023-04-28T01:38:58;9.68;;;3.72;;
71108;SDS011;59614;51.012;-1.648;2023-04-28T01:41:23;9.77;;;3.83;;
71108;SDS011;59614;51.012;-1.648;2023-04-28T01:43:49;9.07;;;3.60;;
71108;SDS011;59614;51.012;-1.648;2023-04-28T01:46:14;6.43;;;3.30;;
71108;SDS011;59614;51.012;-1.648;2023-04-28T01:48:40;6.10;;;3.30;;
71108;SDS011;59614;51.012;-1.648;2023-04-28T01:51:05;8.77;;;3.50;;
71108;SDS011;59614;51.012;-1.648;2023-04-28T01:53:31;5.28;;;2.83;;
71108;SDS011;59614;51.012;-1.648;2023-04-28T01:55:57;6.32;;;3.00;;
71108;SDS011;59614;51.012;-1.648;2023-04-28T01:58:23;6.40;;;3.20;;
71108;SDS011;59614;51.012;-1.648;2023-04-28T02:00:48;7.50;;;3.10;;
71108;SDS011;59614;51.012;-1.648;2023-04-28T02:03:14;8.60;;;3.15;;
71108;SDS011;59614;51.012;-1.648;2023-04-28T02:05:40;7.20;;;3.00;;
71108;SDS011;59614;51.012;-1.648;2023-04-28T02:08:05;5.97;;;2.90;;
71108;SDS011;59614;51.012;-1.648;2023-04-28T02:10:30;5.93;;;2.85;;
71108;SDS011;59614;51.012;-1.648;2023-04-28T02:12:56;7.43;;;3.00;;
71108;SDS011;59614;51.012;-1.648;2023-04-28T02:15:21;9.07;;;2.92;;
71108;SDS011;59614;51.012;-1.648;2023-04-28T02:17:47;6.13;;;2.95;;
71108;SDS011;59614;51.012;-1.648;2023-04-28T02:20:12;11.25;;;3.00;;
71108;SDS011;59614;51.012;-1.648;2023-04-28T02:22:41;7.10;;;3.40;;
71108;SDS011;59614;51.012;-1.648;2023-04-28T02:25:06;4.95;;;2.85;;
71108;SDS011;59614;51.012;-1.648;2023-04-28T02:27:34;9.80;;;4.28;;
71108;SDS011;59614;51.012;-1.648;2023-04-28T02:30:03;7.68;;;3.83;;
71108;SDS011;59614;51.012;-1.648;2023-04-28T02:32:30;9.73;;;4.20;;
71108;SDS011;59614;51.012;-1.648;2023-04-28T02:34:56;9.27;;;3.90;;
71108;SDS011;59614;51.012;-1.648;2023-04-28T02:37:21;9.40;;;4.00;;
71108;SDS011;59614;51.012;-1.648;2023-04-28T02:39:47;9.82;;;4.43;;
71108;SDS011;59614;51.012;-1.648;2023-04-28T02:42:12;10.23;;;4.10;;
71108;SDS011;59614;51.012;-1.648;2023-04-28T02:44:38;6.65;;;3.72;;
71108;SDS011;59614;51.012;-1.648;2023-04-28T02:47:03;11.43;;;4.60;;
71108;SDS011;59614;51.012;-1.648;2023-04-28T02:49:29;13.02;;;4.85;;
71108;SDS011;59614;51.012;-1.648;2023-04-28T02:51:54;13.85;;;4.78;;
71108;SDS011;59614;51.012;-1.648;2023-04-28T02:54:20;8.70;;;4.55;;
71108;SDS011;59614;51.012;-1.648;2023-04-28T02:56:52;10.27;;;4.68;;
71108;SDS011;59614;51.012;-1.648;2023-04-28T02:59:18;8.15;;;4.95;;
71108;SDS011;59614;51.012;-1.648;2023-04-28T03:01:44;6.82;;;4.45;;
71108;SDS011;59614;51.012;-1.648;2023-04-28T03:04:10;11.77;;;4.60;;
71108;SDS011;59614;51.012;-1.648;2023-04-28T03:06:35;8.82;;;4.88;;
71108;SDS011;59614;51.012;-1.648;2023-04-28T03:09:00;9.90;;;5.00;;
71108;SDS011;59614;51.012;-1.648;2023-04-28T03:11:26;14.02;;;5.15;;
71108;SDS011;59614;51.012;-1.648;2023-04-28T03:13:51;14.02;;;5.80;;
71108;SDS011;59614;51.012;-1.648;2023-04-28T03:16:17;9.32;;;5.70;;
71108;SDS011;59614;51.012;-1.648;2023-04-28T03:18:42;13.13;;;5.45;;
71108;SDS011;59614;51.012;-1.648;2023-04-28T03:21:07;13.13;;;5.43;;
71108;SDS011;59614;51.012;-1.648;2023-04-28T03:23:33;13.02;;;5.82;;
71108;SDS011;59614;51.012;-1.648;2023-04-28T03:25:58;12.32;;;5.90;;
71108;SDS011;59614;51.012;-1.648;2023-04-28T03:28:24;10.77;;;5.50;;
71108;SDS011;59614;51.012;-1.648;2023-04-28T03:30:50;14.02;;;5.80;;
71108;SDS011;59614;51.012;-1.648;2023-04-28T03:33:15;13.63;;;5.47;;
71108;SDS011;59614;51.012;-1.648;2023-04-28T03:35:41;7.75;;;5.32;;
71108;SDS011;59614;51.012;-1.648;2023-04-28T03:38:07;9.30;;;5.55;;
71108;SDS011;59614;51.012;-1.648;2023-04-28T03:40:32;11.10;;;5.30;;
71108;SDS011;59614;51.012;-1.648;2023-04-28T03:42:58;8.98;;;5.18;;
71108;SDS011;59614;51.012;-1.648;2023-04-28T03:45:23;12.95;;;5.38;;
71108;SDS011;59614;51.012;-1.648;2023-04-28T03:47:49;12.27;;;5.18;;
71108;SDS011;59614;51.012;-1.648;2023-04-28T03:50:14;13.05;;;5.78;;
71108;SDS011;59614;51.012;-1.648;2023-04-28T03:52:40;8.98;;;5.45;;
71108;SDS011;59614;51.012;-1.648;2023-04-28T03:55:05;9.93;;;5.80;;
71108;SDS011;59614;51.012;-1.648;2023-04-28T03:57:31;8.82;;;5.47;;
71108;SDS011;59614;51.012;-1.648;2023-04-28T03:59:56;10.70;;;5.40;;
71108;SDS011;59614;51.012;-1.648;2023-04-28T04:02:22;10.18;;;5.57;;
71108;SDS011;59614;51.012;-1.648;2023-04-28T04:04:47;12.20;;;5.63;;
71108;SDS011;59614;51.012;-1.648;2023-04-28T04:07:13;11.23;;;5.55;;
71108;SDS011;59614;51.012;-1.648;2023-04-28T04:09:38;10.52;;;5.22;;
71108;SDS011;59614;51.012;-1.648;2023-04-28T04:12:04;10.30;;;5.65;;
71108;SDS011;59614;51.012;-1.648;2023-04-28T04:14:30;9.38;;;5.70;;
71108;SDS011;59614;51.012;-1.648;2023-04-28T04:16:56;8.82;;;5.10;;
71108;SDS011;59614;51.012;-1.648;2023-04-28T04:19:21;8.52;;;4.68;;
71108;SDS011;59614;51.012;-1.648;2023-04-28T04:21:51;8.77;;;5.32;;
71108;SDS011;59614;51.012;-1.648;2023-04-28T04:24:17;10.25;;;5.07;;
71108;SDS011;59614;51.012;-1.648;2023-04-28T04:26:42;10.57;;;4.78;;
71108;SDS011;59614;51.012;-1.648;2023-04-28T04:29:08;7.78;;;4.25;;
71108;SDS011;59614;51.012;-1.648;2023-04-28T04:31:33;9.85;;;4.40;;
71108;SDS011;59614;51.012;-1.648;2023-04-28T04:33:59;9.90;;;4.65;;
71108;SDS011;59614;51.012;-1.648;2023-04-28T04:36:24;6.85;;;4.60;;
71108;SDS011;59614;51.012;-1.648;2023-04-28T04:38:50;8.95;;;4.10;;
71108;SDS011;59614;51.012;-1.648;2023-04-28T04:41:16;13.52;;;4.75;;
71108;SDS011;59614;51.012;-1.648;2023-04-28T04:43:45;9.23;;;4.18;;
71108;SDS011;59614;51.012;-1.648;2023-04-28T04:46:10;8.20;;;4.70;;
71108;SDS011;59614;51.012;-1.648;2023-04-28T04:48:36;8.55;;;4.60;;
71108;SDS011;59614;51.012;-1.648;2023-04-28T04:51:01;14.13;;;4.70;;
71108;SDS011;59614;51.012;-1.648;2023-04-28T04:53:27;9.45;;;4.40;;
71108;SDS011;59614;51.012;-1.648;2023-04-28T04:55:52;8.30;;;4.00;;
71108;SDS011;59614;51.012;-1.648;2023-04-28T04:58:17;9.90;;;4.18;;
71108;SDS011;59614;51.012;-1.648;2023-04-28T05:00:43;6.95;;;4.13;;
71108;SDS011;59614;51.012;-1.648;2023-04-28T05:03:09;10.52;;;4.38;;
71108;SDS011;59614;51.012;-1.648;2023-04-28T05:05:34;9.27;;;4.78;;
71108;SDS011;59614;51.012;-1.648;2023-04-28T05:08:00;10.18;;;4.72;;
71108;SDS011;59614;51.012;-1.648;2023-04-28T05:10:26;10.27;;;4.43;;
71108;SDS011;59614;51.012;-1.648;2023-04-28T05:12:51;8.55;;;4.47;;
71108;SDS011;59614;51.012;-1.648;2023-04-28T05:15:17;8.02;;;4.07;;
71108;SDS011;59614;51.012;-1.648;2023-04-28T05:17:42;10.93;;;4.57;;
71108;SDS011;59614;51.012;-1.648;2023-04-28T05:20:08;7.97;;;4.32;;
71108;SDS011;59614;51.012;-1.648;2023-04-28T05:22:34;7.75;;;4.75;;
71108;SDS011;59614;51.012;-1.648;2023-04-28T05:24:59;10.60;;;4.47;;
71108;SDS011;59614;51.012;-1.648;2023-04-28T05:27:25;11.55;;;5.03;;
71108;SDS011;59614;51.012;-1.648;2023-04-28T05:29:50;7.53;;;4.80;;
71108;SDS011;59614;51.012;-1.648;2023-04-28T05:32:16;8.90;;;5.53;;
71108;SDS011;59614;51.012;-1.648;2023-04-28T05:34:41;15.77;;;6.20;;
71108;SDS011;59614;51.012;-1.648;2023-04-28T05:37:06;11.05;;;5.00;;
71108;SDS011;59614;51.012;-1.648;2023-04-28T05:39:32;10.55;;;4.93;;
71108;SDS011;59614;51.012;-1.648;2023-04-28T05:41:57;6.80;;;4.85;;
71108;SDS011;59614;51.012;-1.648;2023-04-28T05:44:23;9.90;;;4.70;;
71108;SDS011;59614;51.012;-1.648;2023-04-28T05:46:48;10.20;;;4.93;;
71108;SDS011;59614;51.012;-1.648;2023-04-28T05:49:14;11.70;;;4.93;;
71108;SDS011;59614;51.012;-1.648;2023-04-28T05:51:40;13.85;;;4.50;;
71108;SDS011;59614;51.012;-1.648;2023-04-28T05:54:05;8.05;;;4.38;;
71108;SDS011;59614;51.012;-1.648;2023-04-28T05:56:31;8.75;;;4.95;;
71108;SDS011;59614;51.012;-1.648;2023-04-28T05:58:56;10.15;;;4.63;;
71108;SDS011;59614;51.012;-1.648;2023-04-28T06:01:23;12.98;;;4.65;;
71108;SDS011;59614;51.012;-1.648;2023-04-28T06:03:48;6.75;;;4.20;;
71108;SDS011;59614;51.012;-1.648;2023-04-28T06:06:14;11.70;;;4.65;;
71108;SDS011;59614;51.012;-1.648;2023-04-28T06:08:39;8.38;;;4.38;;
71108;SDS011;59614;51.012;-1.648;2023-04-28T06:11:06;9.32;;;4.10;;
71108;SDS011;59614;51.012;-1.648;2023-04-28T06:13:31;8.70;;;4.50;;
71108;SDS011;59614;51.012;-1.648;2023-04-28T06:15:57;10.43;;;4.20;;
71108;SDS011;59614;51.012;-1.648;2023-04-28T06:18:23;7.93;;;4.00;;
71108;SDS011;59614;51.012;-1.648;2023-04-28T06:20:48;10.40;;;4.05;;
71108;SDS011;59614;51.012;-1.648;2023-04-28T06:23:14;7.65;;;4.18;;
71108;SDS011;59614;51.012;-1.648;2023-04-28T06:25:40;8.68;;;3.88;;
71108;SDS011;59614;51.012;-1.648;2023-04-28T06:28:05;8.85;;;4.07;;
71108;SDS011;59614;51.012;-1.648;2023-04-28T06:30:32;7.22;;;3.78;;
71108;SDS011;59614;51.012;-1.648;2023-04-28T06:32:58;6.47;;;3.95;;
71108;SDS011;59614;51.012;-1.648;2023-04-28T06:35:24;13.80;;;4.43;;
71108;SDS011;59614;51.012;-1.648;2023-04-28T06:37:50;7.28;;;4.10;;
71108;SDS011;59614;51.012;-1.648;2023-04-28T06:40:15;7.32;;;3.80;;
71108;SDS011;59614;51.012;-1.648;2023-04-28T06:42:41;7.40;;;3.80;;
71108;SDS011;59614;51.012;-1.648;2023-04-28T06:45:06;5.20;;;3.17;;
71108;SDS011;59614;51.012;-1.648;2023-04-28T06:47:32;6.35;;;3.13;;
71108;SDS011;59614;51.012;-1.648;2023-04-28T06:49:58;7.53;;;3.30;;
71108;SDS011;59614;51.012;-1.648;2023-04-28T06:52:23;5.30;;;2.70;;
71108;SDS011;59614;51.012;-1.648;2023-04-28T06:54:49;6.60;;;2.80;;
71108;SDS011;59614;51.012;-1.648;2023-04-28T06:57:15;4.13;;;2.35;;
71108;SDS011;59614;51.012;-1.648;2023-04-28T06:59:41;5.38;;;2.50;;
71108;SDS011;59614;51.012;-1.648;2023-04-28T07:02:08;4.22;;;2.42;;
71108;SDS011;59614;51.012;-1.648;2023-04-28T07:04:34;3.80;;;2.00;;
71108;SDS011;59614;51.012;-1.648;2023-04-28T07:07:00;3.10;;;1.95;;
71108;SDS011;59614;51.012;-1.648;2023-04-28T07:09:26;5.85;;;1.88;;
71108;SDS011;59614;51.012;-1.648;2023-04-28T07:11:51;2.20;;;1.60;;
71108;SDS011;59614;51.012;-1.648;2023-04-28T07:14:17;2.42;;;1.13;;
71108;SDS011;59614;51.012;-1.648;2023-04-28T07:16:42;1.13;;;1.00;;
71108;SDS011;59614;51.012;-1.648;2023-04-28T07:19:08;0.88;;;0.57;;
71108;SDS011;59614;51.012;-1.648;2023-04-28T07:21:33;3.58;;;0.70;;
71108;SDS011;59614;51.012;-1.648;2023-04-28T07:23:59;1.58;;;0.70;;
71108;SDS011;59614;51.012;-1.648;2023-04-28T07:26:24;1.55;;;0.63;;
71108;SDS011;59614;51.012;-1.648;2023-04-28T07:28:50;0.68;;;0.63;;
71108;SDS011;59614;51.012;-1.648;2023-04-28T07:31:16;2.67;;;0.50;;
71108;SDS011;59614;51.012;-1.648;2023-04-28T07:33:41;0.65;;;0.60;;
71108;SDS011;59614;51.012;-1.648;2023-04-28T07:36:07;0.70;;;0.55;;
71108;SDS011;59614;51.012;-1.648;2023-04-28T07:38:33;1.65;;;0.57;;
71108;SDS011;59614;51.012;-1.648;2023-04-28T07:40:59;2.47;;;0.50;;
71108;SDS011;59614;51.012;-1.648;2023-04-28T07:43:24;0.40;;;0.40;;
71108;SDS011;59614;51.012;-1.648;2023-04-28T07:45:50;0.80;;;0.30;;
71108;SDS011;59614;51.012;-1.648;2023-04-28T07:48:15;1.75;;;0.32;;
71108;SDS011;59614;51.012;-1.648;2023-04-28T07:50:41;0.75;;;0.50;;
71108;SDS011;59614;51.012;-1.648;2023-04-28T07:53:06;4.60;;;0.77;;
71108;SDS011;59614;51.012;-1.648;2023-04-28T07:55:32;0.30;;;0.30;;
71108;SDS011;59614;51.012;-1.648;2023-04-28T07:57:58;0.65;;;0.35;;
71108;SDS011;59614;51.012;-1.648;2023-04-28T08:00:24;0.52;;;0.38;;
71108;SDS011;59614;51.012;-1.648;2023-04-28T08:02:49;2.08;;;0.50;;
71108;SDS011;59614;51.012;-1.648;2023-04-28T08:05:15;0.52;;;0.52;;
71108;SDS011;59614;51.012;-1.648;2023-04-28T08:07:41;0.30;;;0.30;;
71108;SDS011;59614;51.012;-1.648;2023-04-28T08:10:10;0.30;;;0.22;;
71108;SDS011;59614;51.012;-1.648;2023-04-28T08:12:36;0.50;;;0.50;;
71108;SDS011;59614;51.012;-1.648;2023-04-28T08:15:02;0.57;;;0.30;;
71108;SDS011;59614;51.012;-1.648;2023-04-28T08:17:28;1.58;;;0.25;;
71108;SDS011;59614;51.012;-1.648;2023-04-28T08:19:53;2.58;;;0.30;;
71108;SDS011;59614;51.012;-1.648;2023-04-28T08:22:19;0.65;;;0.45;;
71108;SDS011;59614;51.012;-1.648;2023-04-28T08:24:44;1.17;;;0.60;;
71108;SDS011;59614;51.012;-1.648;2023-04-28T08:27:10;0.30;;;0.30;;
71108;SDS011;59614;51.012;-1.648;2023-04-28T08:29:36;0.57;;;0.57;;
71108;SDS011;59614;51.012;-1.648;2023-04-28T08:32:02;0.40;;;0.40;;
71108;SDS011;59614;51.012;-1.648;2023-04-28T08:34:28;0.75;;;0.63;;
71108;SDS011;59614;51.012;-1.648;2023-04-28T08:36:54;1.10;;;0.50;;
71108;SDS011;59614;51.012;-1.648;2023-04-28T08:39:19;1.52;;;0.90;;
71108;SDS011;59614;51.012;-1.648;2023-04-28T08:41:46;2.72;;;0.90;;
71108;SDS011;59614;51.012;-1.648;2023-04-28T08:44:12;3.90;;;1.10;;
71108;SDS011;59614;51.012;-1.648;2023-04-28T08:46:41;1.00;;;1.00;;
71108;SDS011;59614;51.012;-1.648;2023-04-28T08:49:13;1.20;;;1.10;;
71108;SDS011;59614;51.012;-1.648;2023-04-28T08:51:44;1.10;;;1.00;;
71108;SDS011;59614;51.012;-1.648;2023-04-28T08:54:30;1.63;;;1.17;;
71108;SDS011;59614;51.012;-1.648;2023-04-28T08:56:56;1.88;;;1.20;;
71108;SDS011;59614;51.012;-1.648;2023-04-28T08:59:22;2.88;;;1.60;;
71108;SDS011;59614;51.012;-1.648;2023-04-28T09:01:48;1.50;;;1.40;;
71108;SDS011;59614;51.012;-1.648;2023-04-28T09:04:17;1.63;;;1.50;;
71108;SDS011;59614;51.012;-1.648;2023-04-28T09:06:43;1.60;;;1.40;;
71108;SDS011;59614;51.012;-1.648;2023-04-28T09:09:20;3.05;;;1.60;;
71108;SDS011;59614;51.012;-1.648;2023-04-28T09:11:53;1.70;;;1.60;;
71108;SDS011;59614;51.012;-1.648;2023-04-28T09:14:20;1.92;;;1.40;;
71108;SDS011;59614;51.012;-1.648;2023-04-28T09:16:49;2.40;;;1.80;;
71108;SDS011;59614;51.012;-1.648;2023-04-28T09:19:15;2.97;;;1.92;;
71108;SDS011;59614;51.012;-1.648;2023-04-28T09:24:32;2.90;;;1.80;;
71108;SDS011;59614;51.012;-1.648;2023-04-28T09:27:00;3.25;;;2.00;;
71108;SDS011;59614;51.012;-1.648;2023-04-28T09:29:28;2.63;;;1.83;;
71108;SDS011;59614;51.012;-1.648;2023-04-28T09:32:11;7.18;;;2.53;;
71108;SDS011;59614;51.012;-1.648;2023-04-28T09:34:55;3.92;;;2.08;;
71108;SDS011;59614;51.012;-1.648;2023-04-28T09:37:22;7.57;;;2.30;;
71108;SDS011;59614;51.012;-1.648;2023-04-28T09:39:49;3.63;;;1.95;;
71108;SDS011;59614;51.012;-1.648;2023-04-28T09:45:01;5.05;;;1.75;;
71108;SDS011;59614;51.012;-1.648;2023-04-28T09:47:28;2.53;;;1.70;;
71108;SDS011;59614;51.012;-1.648;2023-04-28T09:49:57;6.47;;;1.90;;
71108;SDS011;59614;51.012;-1.648;2023-04-28T09:52:24;4.82;;;1.67;;
71108;SDS011;59614;51.012;-1.648;2023-04-28T09:54:51;4.18;;;2.00;;
71108;SDS011;59614;51.012;-1.648;2023-04-28T09:57:18;5.13;;;1.70;;
71108;SDS011;59614;51.012;-1.648;2023-04-28T09:59:47;3.45;;;1.48;;
71108;SDS011;59614;51.012;-1.648;2023-04-28T10:04:41;1.90;;;1.52;;
71108;SDS011;59614;51.012;-1.648;2023-04-28T10:07:08;1.77;;;1.40;;
71108;SDS011;59614;51.012;-1.648;2023-04-28T10:09:37;5.47;;;1.70;;
71108;SDS011;59614;51.012;-1.648;2023-04-28T10:12:03;3.47;;;1.58;;
71108;SDS011;59614;51.012;-1.648;2023-04-28T10:14:30;6.20;;;1.77;;
71108;SDS011;59614;51.012;-1.648;2023-04-28T10:16:57;3.40;;;1.63;;
71108;SDS011;59614;51.012;-1.648;2023-04-28T10:19:23;4.90;;;2.03;;
71108;SDS011;59614;51.012;-1.648;2023-04-28T10:21:57;4.80;;;1.70;;
71108;SDS011;59614;51.012;-1.648;2023-04-28T10:25:11;2.00;;;1.45;;
71108;SDS011;59614;51.012;-1.648;2023-04-28T10:27:49;2.30;;;1.42;;
71108;SDS011;59614;51.012;-1.648;2023-04-28T10:30:18;4.97;;;1.50;;
71108;SDS011;59614;51.012;-1.648;2023-04-28T10:32:46;4.72;;;1.90;;
71108;SDS011;59614;51.012;-1.648;2023-04-28T10:38:13;3.75;;;1.90;;
71108;SDS011;59614;51.012;-1.648;2023-04-28T10:40:41;3.88;;;1.75;;
71108;SDS011;59614;51.012;-1.648;2023-04-28T10:43:11;3.45;;;1.88;;
71108;SDS011;59614;51.012;-1.648;2023-04-28T10:48:50;3.55;;;1.80;;
71108;SDS011;59614;51.012;-1.648;2023-04-28T10:56:06;3.58;;;2.15;;
71108;SDS011;59614;51.012;-1.648;2023-04-28T10:58:32;6.35;;;1.92;;
71108;SDS011;59614;51.012;-1.648;2023-04-28T11:08:49;2.50;;;1.80;;
71108;SDS011;59614;51.012;-1.648;2023-04-28T11:11:16;3.60;;;1.73;;
71108;SDS011;59614;51.012;-1.648;2023-04-28T11:13:46;5.15;;;1.90;;
71108;SDS011;59614;51.012;-1.648;2023-04-28T11:16:13;3.55;;;2.15;;
71108;SDS011;59614;51.012;-1.648;2023-04-28T11:21:24;5.50;;;2.25;;
71108;SDS011;59614;51.012;-1.648;2023-04-28T11:23:52;2.55;;;1.90;;
71108;SDS011;59614;51.012;-1.648;2023-04-28T11:26:18;9.52;;;2.20;;
71108;SDS011;59614;51.012;-1.648;2023-04-28T11:28:53;3.80;;;2.33;;
71108;SDS011;59614;51.012;-1.648;2023-04-28T11:31:22;7.22;;;2.70;;
71108;SDS011;59614;51.012;-1.648;2023-04-28T11:36:22;5.53;;;3.03;;
71108;SDS011;59614;51.012;-1.648;2023-04-28T11:38:52;6.55;;;3.10;;
71108;SDS011;59614;51.012;-1.648;2023-04-28T11:41:19;4.50;;;3.00;;
71108;SDS011;59614;51.012;-1.648;2023-04-28T11:43:44;7.70;;;3.35;;
71108;SDS011;59614;51.012;-1.648;2023-04-28T11:46:14;7.13;;;3.22;;
71108;SDS011;59614;51.012;-1.648;2023-04-28T11:48:41;12.70;;;3.90;;
71108;SDS011;59614;51.012;-1.648;2023-04-28T11:51:07;6.13;;;3.35;;
71108;SDS011;59614;51.012;-1.648;2023-04-28T11:53:45;5.22;;;3.55;;
71108;SDS011;59614;51.012;-1.648;2023-04-28T11:56:10;5.63;;;3.40;;
71108;SDS011;59614;51.012;-1.648;2023-04-28T11:58:37;5.13;;;3.10;;
71108;SDS011;59614;51.012;-1.648;2023-04-28T12:03:45;4.05;;;2.28;;
71108;SDS011;59614;51.012;-1.648;2023-04-28T12:06:11;4.72;;;2.80;;
71108;SDS011;59614;51.012;-1.648;2023-04-28T12:08:42;5.28;;;3.10;;
71108;SDS011;59614;51.012;-1.648;2023-04-28T12:13:42;5.75;;;2.75;;
71108;SDS011;59614;51.012;-1.648;2023-04-28T12:16:07;4.55;;;2.53;;
71108;SDS011;59614;51.012;-1.648;2023-04-28T12:18:36;3.88;;;2.67;;
71108;SDS011;59614;51.012;-1.648;2023-04-28T12:21:02;3.35;;;2.30;;
71108;SDS011;59614;51.012;-1.648;2023-04-28T12:23:29;4.57;;;2.20;;
71108;SDS011;59614;51.012;-1.648;2023-04-28T12:25:58;3.42;;;2.33;;
71108;SDS011;59614;51.012;-1.648;2023-04-28T12:28:37;4.45;;;2.35;;
71108;SDS011;59614;51.012;-1.648;2023-04-28T12:31:04;4.05;;;2.58;;
71108;SDS011;59614;51.012;-1.648;2023-04-28T12:33:33;4.70;;;2.72;;
71108;SDS011;59614;51.012;-1.648;2023-04-28T12:36:01;6.30;;;2.60;;
71108;SDS011;59614;51.012;-1.648;2023-04-28T12:38:28;4.68;;;2.50;;
71108;SDS011;59614;51.012;-1.648;2023-04-28T12:40:54;6.22;;;2.58;;
71108;SDS011;59614;51.012;-1.648;2023-04-28T12:43:20;5.18;;;2.80;;
71108;SDS011;59614;51.012;-1.648;2023-04-28T12:45:48;6.63;;;2.90;;
71108;SDS011;59614;51.012;-1.648;2023-04-28T12:48:14;6.20;;;2.77;;
71108;SDS011;59614;51.012;-1.648;2023-04-28T12:50:40;4.32;;;2.80;;
71108;SDS011;59614;51.012;-1.648;2023-04-28T12:53:05;4.75;;;2.88;;
71108;SDS011;59614;51.012;-1.648;2023-04-28T12:55:31;3.80;;;2.70;;
71108;SDS011;59614;51.012;-1.648;2023-04-28T12:57:57;4.53;;;2.67;;
71108;SDS011;59614;51.012;-1.648;2023-04-28T13:00:23;6.18;;;2.38;;
71108;SDS011;59614;51.012;-1.648;2023-04-28T13:02:49;4.82;;;2.60;;
71108;SDS011;59614;51.012;-1.648;2023-04-28T13:05:15;5.15;;;2.67;;
71108;SDS011;59614;51.012;-1.648;2023-04-28T13:07:41;6.22;;;2.47;;
71108;SDS011;59614;51.012;-1.648;2023-04-28T13:10:07;4.57;;;2.70;;
71108;SDS011;59614;51.012;-1.648;2023-04-28T13:12:33;5.55;;;2.65;;
71108;SDS011;59614;51.012;-1.648;2023-04-28T13:15:01;3.88;;;2.47;;
71108;SDS011;59614;51.012;-1.648;2023-04-28T13:17:28;6.15;;;2.65;;
71108;SDS011;59614;51.012;-1.648;2023-04-28T13:19:53;3.83;;;2.78;;
71108;SDS011;59614;51.012;-1.648;2023-04-28T13:22:19;4.38;;;2.90;;
71108;SDS011;59614;51.012;-1.648;2023-04-28T13:24:46;4.72;;;3.03;;
71108;SDS011;59614;51.012;-1.648;2023-04-28T13:27:12;3.40;;;2.45;;
71108;SDS011;59614;51.012;-1.648;2023-04-28T13:29:37;5.25;;;3.05;;
71108;SDS011;59614;51.012;-1.648;2023-04-28T13:32:03;6.32;;;2.40;;
71108;SDS011;59614;51.012;-1.648;2023-04-28T13:34:32;5.60;;;2.80;;
71108;SDS011;59614;51.012;-1.648;2023-04-28T13:36:57;5.72;;;2.85;;
71108;SDS011;59614;51.012;-1.648;2023-04-28T13:39:23;8.60;;;3.28;;
71108;SDS011;59614;51.012;-1.648;2023-04-28T13:41:48;4.40;;;2.70;;
71108;SDS011;59614;51.012;-1.648;2023-04-28T13:44:14;4.65;;;2.47;;
71108;SDS011;59614;51.012;-1.648;2023-04-28T13:46:41;5.28;;;2.80;;
71108;SDS011;59614;51.012;-1.648;2023-04-28T13:49:08;6.75;;;2.97;;
71108;SDS011;59614;51.012;-1.648;2023-04-28T13:51:34;9.57;;;2.75;;
71108;SDS011;59614;51.012;-1.648;2023-04-28T13:54:00;5.28;;;2.63;;
71108;SDS011;59614;51.012;-1.648;2023-04-28T13:56:31;4.82;;;2.70;;
71108;SDS011;59614;51.012;-1.648;2023-04-28T13:58:56;3.97;;;2.72;;
71108;SDS011;59614;51.012;-1.648;2023-04-28T14:01:22;4.60;;;2.80;;
71108;SDS011;59614;51.012;-1.648;2023-04-28T14:03:49;6.32;;;2.95;;
71108;SDS011;59614;51.012;-1.648;2023-04-28T14:06:14;6.57;;;3.20;;
71108;SDS011;59614;51.012;-1.648;2023-04-28T14:08:40;8.30;;;3.50;;
71108;SDS011;59614;51.012;-1.648;2023-04-28T14:11:05;6.35;;;2.67;;
71108;SDS011;59614;51.012;-1.648;2023-04-28T14:13:31;4.50;;;2.97;;
71108;SDS011;59614;51.012;-1.648;2023-04-28T14:15:57;3.25;;;2.47;;
71108;SDS011;59614;51.012;-1.648;2023-04-28T14:18:22;4.72;;;2.63;;
71108;SDS011;59614;51.012;-1.648;2023-04-28T14:20:48;5.78;;;3.17;;
71108;SDS011;59614;51.012;-1.648;2023-04-28T14:23:14;6.47;;;3.38;;
71108;SDS011;59614;51.012;-1.648;2023-04-28T14:25:40;7.20;;;2.83;;
71108;SDS011;59614;51.012;-1.648;2023-04-28T14:28:05;7.47;;;3.10;;
71108;SDS011;59614;51.012;-1.648;2023-04-28T14:30:31;4.38;;;2.70;;
71108;SDS011;59614;51.012;-1.648;2023-04-28T14:32:56;4.75;;;2.67;;
71108;SDS011;59614;51.012;-1.648;2023-04-28T14:35:23;6.07;;;2.90;;
71108;SDS011;59614;51.012;-1.648;2023-04-28T14:37:48;5.57;;;2.83;;
71108;SDS011;59614;51.012;-1.648;2023-04-28T14:40:15;6.05;;;3.08;;
71108;SDS011;59614;51.012;-1.648;2023-04-28T14:42:41;3.88;;;2.88;;
71108;SDS011;59614;51.012;-1.648;2023-04-28T14:45:08;6.95;;;2.70;;
71108;SDS011;59614;51.012;-1.648;2023-04-28T14:47:35;6.43;;;3.25;;
71108;SDS011;59614;51.012;-1.648;2023-04-28T14:50:01;4.55;;;3.17;;
71108;SDS011;59614;51.012;-1.648;2023-04-28T14:52:27;5.68;;;3.05;;
71108;SDS011;59614;51.012;-1.648;2023-04-28T14:54:54;5.97;;;2.95;;
71108;SDS011;59614;51.012;-1.648;2023-04-28T14:57:20;5.10;;;3.47;;
71108;SDS011;59614;51.012;-1.648;2023-04-28T14:59:46;5.65;;;3.17;;
71108;SDS011;59614;51.012;-1.648;2023-04-28T15:02:11;5.82;;;3.40;;
71108;SDS011;59614;51.012;-1.648;2023-04-28T15:04:40;7.70;;;3.13;;